Detall de PIREP

Printer-friendly versionPDF version

[2011/05/22 13:15:00]
Flight IATA:CT3234
Pilot Number:037
Company ICAO:CAT
Aircraft Type:B763/F
PAX:101
Departing Airport: LEPA
Destination Airport: LFPG
Alternate Airport:EHRD
Online: VATSIM
Route:GALAT UN861 FISTO UY156 ADABI UN858 VANAD A34 KOVAK

Flight Level:F370
No Slew and time accel
No pause
Crash detect
Detect pilot in Cockpit between each 30 and 45 minutes
13:15 Zero fuel Weight: 225188 Lbs, Fuel Weight: 40262 Lbs
13:15 VATSIM:LEPA 221300Z 21010KT 190V250 9999 FEW035 27/07 Q1020 NOSIG
13:15 VATSIM:LFPG 221300Z 29014KT 9999 SCT038 SCT250 19/09 Q1021 NOSIG
13:37 Take-off
13:37 Take off Weight: 263785 Lbs
13:37 Wind: 240º @ 010 Knots Heading: 238º
13:37 POS N39º 33´ 19´´ E002º 43´ 42´´
13:37 Gear Up: 174 Knots
13:37 Flaps:3 at 174 Knots
13:39 Flaps:2 at 189 Knots
13:39 Flaps:1 at 204 Knots
13:39 Flaps:0 at 215 Knots
13:50 TOC
13:50 Fuel Weight: 32889 Lb
13:52 Wind:208º@023 Knots Heading: 347º Ground Speed: 492 Knots Altitude 37204 ft
14:07 Wind:283º@026 Knots Heading: 349º Ground Speed: 457 Knots Altitude 37299 ft
14:22 Wind:303º@025 Knots Heading: 353º Ground Speed: 451 Knots Altitude 37349 ft
14:37 Wind:243º@027 Knots Heading: 359º Ground Speed: 480 Knots Altitude 37339 ft
14:45 TOD
14:45 Fuel Weight: 24941 Lb
14:52 Wind:275º@034 Knots Heading: 340º Ground Speed: 337 Knots Altitude 20232 ft
15:07 Wind:274º@035 Knots Heading: 081º Ground Speed: 348 Knots Altitude 13576 ft
15:15 Flaps:1 at 192 Knots
15:16 Gear Down: 173 Knots
15:17 Flaps:2 at 180 Knots
15:19 Flaps:3 at 187 Knots
15:20 Flaps:4 at 163 Knots
15:21 Flaps:5 at 150 Knots
15:21 Flaps:6 at 147 Knots
15:22 Wind:280º@013 Knots Heading: 266º Ground Speed: 113 Knots Altitude 446 ft
15:22 TouchDown:Rate -226 ft/min Speed: 120 Knots
15:22 VATSIM:LFPG 221500Z 28013KT 9999 FEW040 BKN250 20/04 Q1021 NOSIG
15:22 Land
15:22 Wind:281º@013 Knots
15:22 Heading: 265º
15:22 Flight Duration: 01:45
15:22 Landing Weight: 245561 Lbs
15:22 POS N49º 01´ 21´´ E002º 32´ 57´´
15:25 Parking brakes on
15:25 Block to Block Duration: 01:48
15:25 Final Fuel: 19768 Lbls
15:25 Spent Fuel: 20493 Lbls
15:25 Flight Length: 497 NM
15:25 TOD Land Length: 108 NM

Exportar CSV

Powered by Drupal - Modified by Danger4k